createdAt,value
2023-05-11T00:00:03.500Z,99.90
2023-05-11T00:02:32.408Z,99.90
2023-05-11T00:04:59.515Z,99.90
2023-05-11T00:07:26.824Z,99.90
2023-05-11T00:09:53.901Z,99.90
2023-05-11T00:12:20.894Z,99.90
2023-05-11T00:14:47.939Z,99.90
2023-05-11T00:17:14.821Z,99.90
2023-05-11T00:19:41.766Z,99.90
2023-05-11T00:22:08.805Z,99.90
2023-05-11T00:24:35.705Z,99.90
2023-05-11T00:27:02.783Z,99.90
2023-05-11T00:29:30.143Z,99.90
2023-05-11T00:31:57.242Z,99.90
2023-05-11T00:34:24.293Z,99.90
2023-05-11T00:36:53.708Z,99.90
2023-05-11T00:39:20.780Z,99.90
2023-05-11T00:41:48.331Z,99.90
2023-05-11T00:44:15.304Z,99.90
2023-05-11T00:46:43.770Z,99.90
2023-05-11T00:49:11.875Z,99.90
2023-05-11T00:51:39.474Z,99.90
2023-05-11T00:54:09.338Z,99.90
2023-05-11T00:56:36.375Z,99.90
2023-05-11T00:59:03.934Z,99.90
2023-05-11T01:01:31.317Z,99.90
2023-05-11T01:03:58.596Z,99.90
2023-05-11T01:06:46.791Z,99.90
2023-05-11T01:09:53.372Z,99.90
2023-05-11T01:12:46.312Z,99.90
2023-05-11T01:15:22.409Z,99.90
2023-05-11T01:18:07.364Z,99.90
2023-05-11T01:20:34.889Z,99.90
2023-05-11T01:23:08.124Z,99.90
2023-05-11T01:26:08.802Z,99.90
2023-05-11T01:29:13.646Z,99.90
2023-05-11T01:31:47.717Z,99.90
2023-05-11T01:34:20.982Z,99.90
2023-05-11T01:37:16.642Z,99.90
2023-05-11T01:39:51.610Z,99.90
2023-05-11T01:42:22.174Z,99.90
2023-05-11T01:44:53.421Z,99.90
2023-05-11T01:47:23.702Z,99.90
2023-05-11T01:49:53.336Z,99.90
2023-05-11T01:52:23.692Z,99.90
2023-05-11T01:54:53.010Z,99.90
2023-05-11T01:57:21.447Z,99.90
2023-05-11T01:59:50.382Z,99.90
2023-05-11T02:02:21.806Z,99.90
2023-05-11T02:04:50.473Z,99.90
2023-05-11T02:07:19.167Z,99.90
2023-05-11T02:09:47.464Z,99.90
2023-05-11T02:12:18.528Z,99.90
2023-05-11T02:14:47.586Z,99.90
2023-05-11T02:17:21.219Z,99.90
2023-05-11T02:19:49.796Z,99.90
2023-05-11T02:22:17.921Z,99.90
2023-05-11T02:24:45.532Z,99.90
2023-05-11T02:27:13.059Z,99.90
2023-05-11T02:29:40.134Z,99.90
2023-05-11T02:32:09.802Z,99.90
2023-05-11T02:34:48.033Z,99.90
2023-05-11T02:37:21.843Z,99.90
2023-05-11T02:39:58.125Z,99.90
2023-05-11T02:42:58.451Z,99.90
2023-05-11T02:45:54.135Z,99.90
2023-05-11T02:48:27.948Z,99.90
2023-05-11T02:51:01.160Z,99.90
2023-05-11T02:53:35.176Z,99.90
2023-05-11T02:56:03.991Z,99.90
2023-05-11T02:58:36.383Z,99.90
2023-05-11T03:01:20.535Z,99.90
2023-05-11T03:03:48.049Z,99.90
2023-05-11T03:06:16.629Z,99.90
2023-05-11T03:08:44.315Z,99.90
2023-05-11T03:11:16.550Z,99.90
2023-05-11T03:13:47.472Z,99.90
2023-05-11T03:16:19.598Z,99.90
2023-05-11T03:18:50.171Z,99.90
2023-05-11T03:21:21.609Z,99.90
2023-05-11T03:23:49.678Z,99.90
2023-05-11T03:26:21.564Z,99.90
2023-05-11T03:28:52.526Z,99.90
2023-05-11T03:31:20.322Z,99.90
2023-05-11T03:33:48.495Z,99.90
2023-05-11T03:36:17.294Z,99.90
2023-05-11T03:38:47.615Z,99.90
2023-05-11T03:41:19.096Z,99.90
2023-05-11T03:43:53.742Z,99.90
2023-05-11T03:46:24.791Z,99.90
2023-05-11T03:48:53.095Z,99.90
2023-05-11T03:51:24.311Z,99.90
2023-05-11T03:53:51.381Z,99.90
2023-05-11T03:56:19.322Z,99.90
2023-05-11T03:58:46.533Z,99.90
2023-05-11T04:01:13.959Z,99.90
2023-05-11T04:03:51.592Z,99.90
2023-05-11T04:06:19.855Z,99.90
2023-05-11T04:08:52.254Z,99.90
2023-05-11T04:11:19.281Z,99.90
2023-05-11T04:13:46.343Z,99.90
2023-05-11T04:16:13.292Z,99.90
2023-05-11T04:18:40.262Z,99.90
2023-05-11T04:21:07.283Z,99.90
2023-05-11T04:23:34.526Z,99.90
2023-05-11T04:26:05.261Z,99.90
2023-05-11T04:28:32.650Z,99.90
2023-05-11T04:31:00.374Z,99.90
2023-05-11T04:33:30.394Z,99.90
2023-05-11T04:35:58.900Z,99.90
2023-05-11T04:38:25.896Z,99.90
2023-05-11T04:40:53.790Z,99.90
2023-05-11T04:43:21.100Z,99.90
2023-05-11T04:45:49.456Z,99.90
2023-05-11T04:48:21.086Z,99.90
2023-05-11T04:50:48.343Z,99.90
2023-05-11T04:53:17.204Z,99.90
2023-05-11T04:55:44.798Z,99.90
2023-05-11T04:58:12.225Z,99.90
2023-05-11T05:00:39.115Z,99.90
2023-05-11T05:03:06.173Z,99.90
2023-05-11T05:05:33.212Z,99.90
2023-05-11T05:08:00.312Z,99.90
2023-05-11T05:10:27.284Z,99.90
2023-05-11T05:12:54.574Z,99.90
2023-05-11T05:15:21.599Z,99.90
2023-05-11T05:17:52.814Z,99.90
2023-05-11T05:20:21.076Z,99.90
2023-05-11T05:22:48.837Z,99.90
2023-05-11T05:29:06.184Z,99.90
2023-05-11T05:31:34.718Z,99.90
2023-05-11T05:34:03.349Z,99.90
2023-05-11T05:36:31.769Z,99.90
2023-05-11T05:38:58.689Z,99.90
2023-05-11T05:41:52.446Z,99.90
2023-05-11T05:44:20.524Z,99.90
2023-05-11T05:47:59.054Z,99.90
2023-05-11T05:50:27.899Z,99.90
2023-05-11T05:52:57.933Z,99.90
2023-05-11T05:55:27.628Z,99.90
2023-05-11T05:57:58.290Z,99.90
2023-05-11T06:00:25.558Z,99.90
2023-05-11T06:03:01.522Z,99.90
2023-05-11T06:05:32.149Z,99.90
2023-05-11T06:08:10.066Z,99.90
2023-05-11T06:10:38.951Z,99.90
2023-05-11T06:13:17.564Z,99.90
2023-05-11T06:15:45.173Z,99.90
2023-05-11T06:18:20.545Z,99.90
2023-05-11T06:23:56.009Z,99.90
2023-05-11T06:26:25.710Z,99.90
2023-05-11T06:28:53.577Z,99.90
2023-05-11T06:31:26.058Z,99.90
2023-05-11T06:33:54.087Z,99.90
2023-05-11T06:46:32.769Z,99.90
2023-05-11T06:49:48.023Z,99.90
2023-05-11T07:17:49.956Z,99.90
2023-05-11T07:20:18.990Z,99.90
2023-05-11T07:22:46.425Z,99.90
2023-05-11T07:25:13.452Z,99.90
2023-05-11T07:27:40.511Z,99.90
2023-05-11T07:30:08.854Z,99.90
2023-05-11T07:32:36.211Z,99.90
2023-05-11T07:35:03.577Z,99.90
2023-05-11T07:37:30.589Z,99.90
2023-05-11T07:39:58.899Z,99.90
2023-05-11T07:42:26.639Z,99.90
2023-05-11T07:44:54.009Z,99.90
2023-05-11T07:47:21.639Z,99.90
2023-05-11T07:49:48.868Z,99.90
2023-05-11T07:52:15.844Z,99.90
2023-05-11T07:54:45.107Z,99.90
2023-05-11T07:57:13.918Z,99.90
2023-05-11T07:59:46.470Z,99.90
2023-05-11T08:02:16.646Z,99.90
2023-05-11T08:04:43.993Z,99.90
2023-05-11T08:07:10.965Z,99.90
2023-05-11T08:09:39.697Z,99.90
2023-05-11T08:12:09.323Z,99.90
2023-05-11T08:14:40.191Z,99.90
2023-05-11T08:17:07.288Z,99.90
2023-05-11T08:19:34.384Z,99.90
2023-05-11T08:22:02.284Z,99.90
2023-05-11T08:24:29.543Z,99.90
2023-05-11T08:26:56.837Z,99.90
2023-05-11T08:29:27.430Z,99.90
2023-05-11T08:31:54.614Z,99.90
2023-05-11T08:34:22.605Z,99.90
2023-05-11T08:36:51.211Z,99.90
2023-05-11T08:39:32.933Z,99.90
2023-05-11T08:42:07.698Z,99.90
2023-05-11T08:44:37.736Z,99.90
2023-05-11T08:47:21.770Z,99.90
2023-05-11T08:49:51.894Z,99.90
2023-05-11T08:52:19.486Z,99.90
2023-05-11T08:54:47.421Z,99.90
2023-05-11T08:57:15.275Z,99.90
2023-05-11T08:59:46.322Z,99.90
2023-05-11T09:02:19.152Z,99.90
2023-05-11T09:04:48.865Z,99.90
2023-05-11T09:07:18.332Z,99.90
2023-05-11T09:09:47.302Z,99.90
2023-05-11T09:12:14.574Z,99.90
2023-05-11T09:14:42.229Z,99.90
2023-05-11T09:17:09.342Z,99.90
2023-05-11T09:19:36.556Z,99.90
2023-05-11T09:22:06.422Z,99.90
2023-05-11T09:24:33.510Z,99.90
2023-05-11T09:27:10.917Z,99.90
2023-05-11T09:29:39.516Z,99.90
2023-05-11T09:32:06.826Z,99.90
2023-05-11T09:34:33.986Z,99.90
2023-05-11T09:37:00.941Z,99.90
2023-05-11T09:39:42.175Z,99.90
2023-05-11T09:42:30.111Z,99.90
2023-05-11T09:45:01.828Z,99.90
2023-05-11T09:47:40.804Z,99.90
2023-05-11T09:50:18.821Z,99.90
2023-05-11T09:52:54.239Z,99.90
2023-05-11T09:55:21.157Z,99.90
2023-05-11T09:57:55.317Z,99.90
2023-05-11T10:00:22.306Z,99.90
2023-05-11T10:03:08.020Z,99.90
2023-05-11T10:05:36.605Z,99.90
2023-05-11T10:08:05.504Z,99.90
2023-05-11T10:10:34.482Z,99.90
2023-05-11T10:13:03.610Z,99.90
2023-05-11T10:15:35.381Z,99.90
2023-05-11T10:18:03.728Z,99.90
2023-05-11T10:20:31.573Z,99.90
2023-05-11T10:22:58.883Z,99.90
2023-05-11T10:25:28.880Z,99.90
2023-05-11T10:27:57.637Z,99.90
2023-05-11T10:30:24.896Z,99.90
2023-05-11T10:32:53.421Z,99.90
2023-05-11T10:35:22.114Z,99.90
2023-05-11T10:37:50.136Z,99.90
2023-05-11T10:40:17.544Z,99.90
2023-05-11T10:43:29.889Z,99.90
2023-05-11T10:46:35.381Z,99.90
2023-05-11T10:49:31.812Z,99.90
2023-05-11T10:52:43.980Z,99.90
2023-05-11T10:55:28.883Z,99.90
2023-05-11T10:58:14.542Z,99.90
2023-05-11T11:01:19.367Z,99.90
2023-05-11T11:04:05.633Z,99.90
2023-05-11T11:06:34.909Z,99.90
2023-05-11T11:09:23.758Z,99.90
2023-05-11T11:11:51.268Z,99.90
2023-05-11T11:14:19.415Z,99.90
2023-05-11T11:17:14.491Z,99.90
2023-05-11T11:19:43.496Z,99.90
2023-05-11T11:22:48.948Z,99.90
2023-05-11T11:25:38.855Z,99.90
2023-05-11T11:28:06.022Z,99.90
2023-05-11T11:30:33.570Z,99.90
2023-05-11T11:33:09.795Z,99.90
2023-05-11T11:35:42.833Z,99.90
2023-05-11T11:38:20.882Z,99.90
2023-05-11T11:40:53.116Z,99.90
2023-05-11T11:43:27.267Z,99.90
2023-05-11T11:45:59.976Z,99.90
2023-05-11T11:48:35.703Z,99.90
2023-05-11T11:51:14.019Z,99.90
2023-05-11T11:53:41.180Z,99.90
2023-05-11T11:56:13.937Z,99.90
2023-05-11T11:58:44.515Z,99.90
2023-05-11T12:01:22.901Z,99.90
2023-05-11T12:03:59.568Z,99.90
2023-05-11T12:06:34.914Z,99.90
2023-05-11T12:09:02.042Z,99.90
2023-05-11T12:11:30.368Z,99.90
2023-05-11T12:13:59.127Z,99.90
2023-05-11T12:16:27.088Z,99.90
2023-05-11T12:18:58.513Z,99.90
2023-05-11T12:21:30.374Z,99.90
2023-05-11T12:23:58.163Z,99.90
2023-05-11T12:26:29.600Z,99.90
2023-05-11T12:29:13.956Z,99.90
2023-05-11T12:31:43.867Z,99.90
2023-05-11T12:34:18.269Z,99.90
2023-05-11T12:36:47.576Z,99.90
2023-05-11T12:39:27.891Z,99.90
2023-05-11T12:41:56.312Z,99.90
2023-05-11T12:44:26.906Z,99.90
2023-05-11T12:46:54.764Z,99.90
2023-05-11T12:49:27.857Z,99.90
2023-05-11T12:51:58.001Z,99.90
2023-05-11T12:54:39.123Z,99.90
2023-05-11T12:57:08.538Z,99.90
2023-05-11T12:59:40.114Z,99.90
2023-05-11T13:02:08.718Z,99.90
2023-05-11T13:04:37.043Z,99.90
2023-05-11T13:07:04.360Z,99.90
2023-05-11T13:09:31.505Z,99.60
2023-05-11T13:12:32.022Z,97.20
2023-05-11T13:15:05.884Z,99.40
2023-05-11T13:17:38.288Z,96.20
2023-05-11T13:20:27.637Z,98.30
2023-05-11T13:23:12.047Z,96.70
2023-05-11T13:25:54.219Z,96.80
2023-05-11T13:28:24.468Z,96.90
2023-05-11T13:30:59.261Z,97.40
2023-05-11T13:33:26.589Z,97.10
2023-05-11T13:35:54.287Z,95.40
2023-05-11T13:38:21.210Z,95.90
2023-05-11T13:40:48.198Z,93.60
2023-05-11T13:43:15.140Z,92.90
2023-05-11T13:45:42.148Z,93.60
2023-05-11T13:48:11.850Z,92.30
2023-05-11T13:50:39.979Z,91.80
2023-05-11T13:53:06.872Z,89.30
2023-05-11T13:55:35.554Z,87.20
2023-05-11T13:58:02.713Z,89.00
2023-05-11T14:00:31.466Z,90.60
2023-05-11T14:02:58.740Z,92.40
2023-05-11T14:05:26.631Z,94.00
2023-05-11T14:07:53.614Z,94.10
2023-05-11T14:10:21.741Z,93.70
2023-05-11T14:12:48.689Z,93.90
2023-05-11T14:15:17.704Z,93.70
2023-05-11T14:17:45.168Z,94.00
2023-05-11T14:20:13.109Z,93.30
2023-05-11T14:22:42.738Z,94.40
2023-05-11T14:25:09.824Z,95.60
2023-05-11T14:27:37.049Z,96.20
2023-05-11T14:30:04.285Z,96.50
2023-05-11T14:32:32.931Z,95.80
2023-05-11T14:35:04.162Z,95.60
2023-05-11T14:37:32.198Z,96.30
2023-05-11T14:39:59.896Z,97.30
2023-05-11T14:42:27.074Z,97.30
2023-05-11T14:44:54.293Z,96.80
2023-05-11T14:47:21.573Z,96.60
2023-05-11T14:49:48.622Z,96.30
2023-05-11T14:52:16.759Z,95.90
2023-05-11T14:54:45.339Z,93.80
2023-05-11T14:57:12.744Z,91.70
2023-05-11T14:59:55.179Z,92.10
2023-05-11T15:02:26.115Z,91.40
2023-05-11T15:04:53.417Z,88.40
2023-05-11T15:07:20.651Z,85.70
2023-05-11T15:09:47.800Z,81.50
2023-05-11T15:12:14.753Z,78.20
2023-05-11T15:14:42.465Z,75.20
2023-05-11T15:17:10.210Z,75.20
2023-05-11T15:19:37.471Z,76.10
2023-05-11T15:22:08.053Z,73.30
2023-05-11T15:24:37.153Z,72.30
2023-05-11T15:27:05.151Z,68.10
2023-05-11T15:29:32.789Z,62.70
2023-05-11T15:32:03.092Z,62.00
2023-05-11T15:34:30.804Z,59.60
2023-05-11T15:36:58.856Z,59.80
2023-05-11T15:39:27.962Z,59.50
2023-05-11T15:41:55.109Z,60.10
2023-05-11T15:44:22.624Z,64.20
2023-05-11T15:46:50.765Z,65.50
2023-05-11T15:49:18.485Z,68.90
2023-05-11T15:51:45.985Z,70.50
2023-05-11T15:54:13.472Z,71.60
2023-05-11T15:56:40.539Z,72.40
2023-05-11T15:59:08.280Z,75.00
2023-05-11T16:01:35.905Z,76.40
2023-05-11T16:04:04.281Z,79.70
2023-05-11T16:06:35.089Z,83.00
2023-05-11T16:09:02.214Z,84.10
2023-05-11T16:11:30.065Z,87.40
2023-05-11T16:13:57.470Z,90.10
2023-05-11T16:16:24.901Z,91.70
2023-05-11T16:18:52.212Z,92.00
2023-05-11T16:21:19.551Z,93.30
2023-05-11T16:23:47.052Z,94.00
2023-05-11T16:26:14.632Z,95.00
2023-05-11T16:28:42.444Z,95.30
2023-05-11T16:31:13.610Z,95.90
2023-05-11T16:33:41.104Z,95.20
2023-05-11T16:36:09.987Z,94.90
2023-05-11T16:38:37.709Z,95.80
2023-05-11T16:41:05.517Z,96.60
2023-05-11T16:43:35.202Z,97.70
2023-05-11T16:46:03.542Z,97.30
2023-05-11T16:48:30.954Z,98.20
2023-05-11T16:50:57.953Z,98.70
2023-05-11T16:53:28.445Z,99.90
2023-05-11T16:55:57.720Z,99.90
2023-05-11T16:58:25.072Z,99.90
2023-05-11T17:00:52.893Z,99.90
2023-05-11T17:03:21.546Z,99.90
2023-05-11T17:05:48.854Z,99.90
2023-05-11T17:08:16.276Z,99.90
2023-05-11T17:10:43.360Z,99.90
2023-05-11T17:15:57.388Z,99.90
2023-05-11T17:18:26.017Z,99.90
2023-05-11T17:20:56.455Z,99.90
2023-05-11T17:23:25.625Z,99.90
2023-05-11T17:25:52.819Z,99.90
2023-05-11T17:28:19.999Z,99.90
2023-05-11T17:30:51.350Z,99.90
2023-05-11T17:33:18.812Z,99.90
2023-05-11T17:35:47.210Z,99.90
2023-05-11T17:38:14.248Z,99.90
2023-05-11T17:40:45.750Z,99.90
2023-05-11T17:43:13.624Z,99.90
2023-05-11T17:45:42.669Z,99.90
2023-05-11T17:48:09.743Z,99.90
2023-05-11T17:50:37.209Z,99.90
2023-05-11T17:53:05.499Z,99.90
2023-05-11T17:55:32.438Z,99.90
2023-05-11T17:57:59.697Z,99.90
2023-05-11T18:00:27.964Z,99.90
2023-05-11T18:02:55.139Z,99.90
2023-05-11T18:05:28.079Z,99.90
2023-05-11T18:08:02.887Z,99.90
2023-05-11T18:10:30.220Z,99.90
2023-05-11T18:12:57.235Z,99.90
2023-05-11T18:15:25.602Z,99.90
2023-05-11T18:17:54.539Z,99.90
2023-05-11T18:20:21.738Z,99.90
2023-05-11T18:22:48.740Z,99.90
2023-05-11T18:25:15.733Z,99.90
2023-05-11T18:27:43.798Z,99.90
2023-05-11T18:30:11.428Z,99.90
2023-05-11T18:32:38.402Z,99.90
2023-05-11T18:35:05.636Z,99.90
2023-05-11T18:37:35.550Z,99.90
2023-05-11T18:40:07.168Z,99.90
2023-05-11T18:42:34.269Z,99.90
2023-05-11T18:45:01.388Z,99.90
2023-05-11T18:47:29.745Z,99.90
2023-05-11T18:49:58.573Z,99.90
2023-05-11T18:52:28.865Z,99.90
2023-05-11T18:54:56.744Z,99.90
2023-05-11T18:57:23.983Z,99.90
2023-05-11T18:59:51.849Z,99.90
2023-05-11T19:02:18.907Z,99.90
2023-05-11T19:04:45.980Z,99.90
2023-05-11T19:07:12.934Z,99.90
2023-05-11T19:09:39.907Z,99.90
2023-05-11T19:12:07.418Z,99.90
2023-05-11T19:14:37.764Z,99.90
2023-05-11T19:17:05.473Z,99.90
2023-05-11T19:19:32.536Z,99.90
2023-05-11T19:22:00.066Z,99.90
2023-05-11T19:24:27.132Z,99.90
2023-05-11T19:27:05.715Z,99.90
2023-05-11T19:29:33.832Z,99.90
2023-05-11T19:32:00.832Z,99.90
2023-05-11T19:34:27.853Z,99.90
2023-05-11T19:36:54.800Z,99.90
2023-05-11T19:39:25.593Z,99.90
2023-05-11T19:41:53.679Z,99.90
2023-05-11T19:44:21.607Z,99.90
2023-05-11T19:46:48.813Z,99.90
2023-05-11T19:49:18.074Z,99.90
2023-05-11T19:51:45.047Z,99.90
2023-05-11T19:54:13.946Z,99.90
2023-05-11T19:56:41.680Z,99.90
2023-05-11T19:59:10.343Z,99.90
2023-05-11T20:01:37.275Z,99.90
2023-05-11T20:04:04.861Z,99.90
2023-05-11T20:06:31.965Z,99.90
2023-05-11T20:08:59.148Z,99.90
2023-05-11T20:11:26.238Z,99.90
2023-05-11T20:13:53.968Z,99.90
2023-05-11T20:16:24.292Z,99.90
2023-05-11T20:18:51.750Z,99.90
2023-05-11T20:21:18.680Z,99.90
2023-05-11T20:23:47.170Z,99.90
2023-05-11T20:26:14.352Z,99.90
2023-05-11T20:28:41.356Z,99.90
2023-05-11T20:31:09.648Z,99.90
2023-05-11T20:36:06.771Z,99.90
2023-05-11T20:38:34.097Z,99.90
2023-05-11T20:41:01.036Z,99.90
2023-05-11T20:43:28.034Z,99.90
2023-05-11T20:45:55.490Z,99.90
2023-05-11T20:48:35.928Z,99.90
2023-05-11T20:51:07.758Z,99.90
2023-05-11T20:53:34.744Z,99.90
2023-05-11T20:56:03.081Z,99.90
2023-05-11T20:58:31.591Z,99.90
2023-05-11T21:00:58.791Z,99.90
2023-05-11T21:03:27.725Z,99.90
2023-05-11T21:05:54.789Z,99.90
2023-05-11T21:08:21.771Z,99.90
2023-05-11T21:10:48.810Z,99.90
2023-05-11T21:13:15.874Z,99.90
2023-05-11T21:15:42.840Z,99.90
2023-05-11T21:18:10.005Z,99.90
2023-05-11T21:20:37.051Z,99.90
2023-05-11T21:23:06.902Z,99.90
2023-05-11T21:25:34.120Z,99.90
2023-05-11T21:28:01.258Z,99.90
2023-05-11T21:30:28.383Z,99.90
2023-05-11T21:32:55.388Z,99.90
2023-05-11T21:35:24.426Z,99.90
2023-05-11T21:37:51.392Z,99.90
2023-05-11T21:40:18.757Z,99.90
2023-05-11T21:42:47.286Z,99.90
2023-05-11T21:45:14.348Z,99.90
2023-05-11T21:47:42.645Z,99.90
2023-05-11T21:50:11.634Z,99.90
2023-05-11T21:52:38.596Z,99.90
2023-05-11T21:55:05.986Z,99.90
2023-05-11T21:57:37.325Z,99.90
2023-05-11T22:00:04.961Z,99.90
2023-05-11T22:02:32.751Z,99.90
2023-05-11T22:05:00.037Z,99.90
2023-05-11T22:07:27.030Z,99.90
2023-05-11T22:09:54.175Z,99.90
2023-05-11T22:12:21.602Z,99.90
2023-05-11T22:14:48.638Z,99.90
2023-05-11T22:17:15.896Z,99.90
2023-05-11T22:19:42.973Z,99.90
2023-05-11T22:22:09.920Z,99.90
2023-05-11T22:24:37.145Z,99.90
2023-05-11T22:27:04.148Z,99.90
2023-05-11T22:29:31.165Z,99.90
2023-05-11T22:31:58.476Z,99.90
2023-05-11T22:34:25.666Z,99.90
2023-05-11T22:36:52.560Z,99.90
2023-05-11T22:39:19.497Z,99.90
2023-05-11T22:41:46.490Z,99.90
2023-05-11T22:44:13.486Z,99.90
2023-05-11T22:46:40.492Z,99.90
2023-05-11T22:49:08.484Z,99.90
2023-05-11T22:51:36.434Z,99.90
2023-05-11T22:54:03.655Z,99.90
2023-05-11T22:56:32.883Z,99.90
2023-05-11T22:59:00.231Z,99.90
2023-05-11T23:01:29.335Z,99.90
2023-05-11T23:03:56.315Z,99.90
2023-05-11T23:06:23.913Z,99.90
2023-05-11T23:08:51.134Z,99.90
2023-05-11T23:11:19.235Z,99.90
2023-05-11T23:13:47.015Z,99.90
2023-05-11T23:16:14.102Z,99.90
2023-05-11T23:18:41.278Z,99.90
2023-05-11T23:21:08.528Z,99.90
2023-05-11T23:23:35.667Z,99.90
2023-05-11T23:26:02.563Z,99.90
2023-05-11T23:28:31.365Z,99.90
2023-05-11T23:30:58.313Z,99.90
2023-05-11T23:33:25.446Z,99.90
2023-05-11T23:35:55.883Z,99.90
2023-05-11T23:38:23.676Z,99.90
2023-05-11T23:40:50.623Z,99.90
2023-05-11T23:43:19.769Z,99.90
2023-05-11T23:45:47.263Z,99.90
2023-05-11T23:48:14.380Z,99.90
2023-05-11T23:50:41.417Z,99.90
2023-05-11T23:53:08.594Z,99.90
2023-05-11T23:55:35.688Z,99.90
2023-05-11T23:58:02.574Z,99.90
